createdAt,value
2022-10-05T00:01:22.932Z,95.50
2022-10-05T00:03:49.803Z,95.50
2022-10-05T00:06:16.764Z,95.50
2022-10-05T00:08:43.543Z,95.60
2022-10-05T00:11:14.423Z,95.60
2022-10-05T00:13:41.973Z,95.60
2022-10-05T00:16:18.340Z,95.60
2022-10-05T00:18:50.853Z,95.60
2022-10-05T00:21:24.362Z,95.60
2022-10-05T00:23:52.461Z,95.60
2022-10-05T00:26:22.229Z,95.60
2022-10-05T00:28:49.633Z,95.60
2022-10-05T00:31:25.338Z,95.70
2022-10-05T00:33:54.876Z,95.70
2022-10-05T00:36:21.737Z,95.70
2022-10-05T00:38:48.559Z,95.70
2022-10-05T00:41:38.183Z,95.70
2022-10-05T00:44:16.738Z,95.70
2022-10-05T00:47:06.568Z,95.70
2022-10-05T00:49:55.660Z,95.70
2022-10-05T00:52:49.748Z,95.70
2022-10-05T00:55:54.005Z,95.70
2022-10-05T00:58:41.215Z,95.70
2022-10-05T01:01:16.675Z,95.70
2022-10-05T01:03:55.288Z,95.70
2022-10-05T01:06:45.907Z,95.60
2022-10-05T01:09:26.872Z,95.60
2022-10-05T01:12:32.685Z,95.60
2022-10-05T01:15:11.788Z,95.60
2022-10-05T01:17:45.949Z,95.50
2022-10-05T01:20:22.535Z,95.50
2022-10-05T01:22:55.099Z,95.50
2022-10-05T01:25:55.877Z,95.50
2022-10-05T01:28:37.879Z,95.50
2022-10-05T01:31:32.384Z,95.50
2022-10-05T01:34:12.081Z,95.50
2022-10-05T01:36:59.929Z,95.60
2022-10-05T01:39:37.991Z,95.60
2022-10-05T01:42:14.287Z,95.60
2022-10-05T01:44:52.910Z,95.60
2022-10-05T01:47:36.861Z,95.60
2022-10-05T01:50:44.765Z,95.60
2022-10-05T01:53:20.267Z,95.60
2022-10-05T01:56:04.680Z,95.60
2022-10-05T01:58:52.228Z,95.60
2022-10-05T02:02:00.915Z,95.60
2022-10-05T02:05:01.347Z,95.60
2022-10-05T02:07:46.754Z,95.70
2022-10-05T02:10:32.771Z,95.70
2022-10-05T02:13:14.393Z,95.70
2022-10-05T02:16:07.599Z,95.70
2022-10-05T02:18:56.397Z,95.70
2022-10-05T02:21:24.991Z,95.70
2022-10-05T02:23:57.512Z,95.70
2022-10-05T02:26:26.109Z,95.70
2022-10-05T02:29:08.119Z,95.70
2022-10-05T02:31:45.009Z,95.70
2022-10-05T02:34:25.747Z,95.70
2022-10-05T02:37:15.278Z,95.70
2022-10-05T02:39:47.867Z,95.70
2022-10-05T02:42:26.420Z,95.70
2022-10-05T02:44:55.864Z,95.70
2022-10-05T02:47:42.848Z,95.70
2022-10-05T02:50:18.725Z,95.70
2022-10-05T02:52:56.610Z,95.70
2022-10-05T02:55:46.559Z,95.70
2022-10-05T02:58:22.498Z,95.70
2022-10-05T03:01:22.673Z,95.70
2022-10-05T03:04:04.032Z,95.70
2022-10-05T03:06:38.291Z,95.70
2022-10-05T03:09:07.595Z,95.70
2022-10-05T03:11:52.877Z,95.70
2022-10-05T03:14:36.901Z,95.70
2022-10-05T03:17:19.089Z,95.70
2022-10-05T03:20:07.677Z,95.70
2022-10-05T03:23:15.574Z,95.70
2022-10-05T03:26:14.560Z,95.70
2022-10-05T03:28:44.006Z,95.70
2022-10-05T03:31:23.508Z,95.70
2022-10-05T03:34:00.142Z,95.70
2022-10-05T03:36:43.586Z,95.70
2022-10-05T03:39:36.462Z,95.70
2022-10-05T03:42:12.908Z,95.70
2022-10-05T03:45:30.080Z,95.70
2022-10-05T03:48:14.258Z,95.70
2022-10-05T03:50:56.072Z,95.80
2022-10-05T03:53:29.531Z,95.70
2022-10-05T03:56:16.406Z,95.70
2022-10-05T03:58:52.797Z,95.70
2022-10-05T04:01:25.501Z,95.70
2022-10-05T04:04:04.961Z,95.70
2022-10-05T04:06:36.717Z,95.70
2022-10-05T04:09:23.028Z,95.70
2022-10-05T04:12:20.015Z,95.70
2022-10-05T04:14:57.048Z,95.70
2022-10-05T04:17:40.527Z,95.70
2022-10-05T04:20:22.991Z,95.70
2022-10-05T04:23:02.794Z,95.70
2022-10-05T04:25:32.131Z,95.70
2022-10-05T04:28:32.469Z,95.70
2022-10-05T04:31:03.903Z,95.70
2022-10-05T04:33:32.267Z,95.80
2022-10-05T04:36:11.208Z,95.70
2022-10-05T04:39:03.924Z,95.70
2022-10-05T04:41:52.447Z,95.70
2022-10-05T04:44:27.795Z,95.70
2022-10-05T04:47:14.672Z,95.70
2022-10-05T04:49:55.643Z,95.70
2022-10-05T04:52:51.108Z,95.70
2022-10-05T04:55:46.455Z,95.70
2022-10-05T04:58:45.400Z,95.70
2022-10-05T05:01:44.391Z,95.70
2022-10-05T05:04:22.050Z,95.70
2022-10-05T05:06:54.671Z,95.70
2022-10-05T05:09:56.852Z,95.70
2022-10-05T05:12:51.849Z,95.70
2022-10-05T05:15:47.047Z,95.70
2022-10-05T05:18:38.023Z,95.70
2022-10-05T05:21:16.835Z,95.60
2022-10-05T05:24:02.753Z,95.70
2022-10-05T05:26:47.944Z,95.70
2022-10-05T05:29:33.909Z,95.70
2022-10-05T05:32:29.573Z,95.70
2022-10-05T05:35:08.374Z,95.70
2022-10-05T05:37:46.833Z,95.60
2022-10-05T05:40:18.167Z,95.60
2022-10-05T05:42:51.079Z,95.60
2022-10-05T05:45:20.504Z,95.60
2022-10-05T05:47:52.650Z,95.60
2022-10-05T05:50:39.698Z,95.60
2022-10-05T05:53:24.987Z,95.60
2022-10-05T05:56:00.700Z,95.60
2022-10-05T05:58:43.352Z,95.60
2022-10-05T06:01:32.234Z,95.60
2022-10-05T06:04:14.713Z,95.60
2022-10-05T06:06:47.182Z,95.50
2022-10-05T06:09:36.656Z,95.50
2022-10-05T06:12:10.071Z,95.50
2022-10-05T06:14:59.954Z,95.60
2022-10-05T06:17:42.272Z,95.60
2022-10-05T06:20:36.462Z,95.60
2022-10-05T06:23:07.481Z,95.60
2022-10-05T06:25:49.124Z,95.70
2022-10-05T06:28:16.371Z,95.70
2022-10-05T06:30:58.227Z,95.60
2022-10-05T06:33:52.191Z,95.70
2022-10-05T06:36:36.760Z,95.70
2022-10-05T06:39:27.764Z,95.70
2022-10-05T06:42:19.486Z,95.60
2022-10-05T06:44:53.404Z,95.60
2022-10-05T06:48:00.460Z,95.60
2022-10-05T06:50:43.020Z,95.70
2022-10-05T06:53:35.350Z,95.60
2022-10-05T06:56:16.736Z,95.70
2022-10-05T06:59:09.113Z,95.60
2022-10-05T07:02:19.976Z,95.60
2022-10-05T07:05:11.938Z,95.70
2022-10-05T07:07:55.287Z,95.70
2022-10-05T07:10:43.878Z,95.70
2022-10-05T07:13:49.471Z,95.80
2022-10-05T07:16:38.039Z,95.80
2022-10-05T07:19:28.926Z,95.80
2022-10-05T07:21:55.656Z,95.80
2022-10-05T07:24:42.419Z,95.80
2022-10-05T07:27:23.467Z,95.80
2022-10-05T07:30:01.562Z,95.80
2022-10-05T07:32:55.443Z,95.90
2022-10-05T07:35:40.501Z,95.90
2022-10-05T07:38:21.046Z,95.90
2022-10-05T07:41:12.505Z,91.30
2022-10-05T07:44:26.979Z,91.30
2022-10-05T07:47:01.356Z,91.30
2022-10-05T07:49:53.193Z,91.40
2022-10-05T07:52:34.774Z,91.40
2022-10-05T07:55:33.833Z,91.50
2022-10-05T07:58:19.050Z,91.50
2022-10-05T08:01:00.416Z,91.60
2022-10-05T08:03:49.834Z,91.70
2022-10-05T08:06:33.114Z,91.70
2022-10-05T08:09:08.314Z,91.70
2022-10-05T08:11:48.741Z,91.70
2022-10-05T08:14:33.679Z,91.70
2022-10-05T08:17:06.083Z,91.80
2022-10-05T08:19:53.104Z,91.90
2022-10-05T08:22:31.265Z,91.80
2022-10-05T08:25:05.799Z,91.90
2022-10-05T08:27:50.731Z,92.00
2022-10-05T08:30:17.880Z,91.70
2022-10-05T08:32:58.874Z,91.50
2022-10-05T08:35:43.764Z,91.40
2022-10-05T08:38:19.825Z,90.60
2022-10-05T08:41:38.078Z,88.80
2022-10-05T08:44:43.742Z,88.10
2022-10-05T08:47:43.645Z,87.80
2022-10-05T08:50:25.226Z,70.00
2022-10-05T08:53:13.166Z,68.00
2022-10-05T08:56:10.608Z,64.60
2022-10-05T08:59:11.988Z,52.00
2022-10-05T09:01:57.219Z,35.70
2022-10-05T09:04:44.832Z,31.00
2022-10-05T09:07:17.404Z,24.70
2022-10-05T09:10:14.481Z,19.40
2022-10-05T09:12:47.588Z,18.60
2022-10-05T09:15:56.197Z,27.10
2022-10-05T09:18:31.840Z,20.20
2022-10-05T09:21:06.493Z,9.20
2022-10-05T09:23:44.907Z,11.20
2022-10-05T09:26:44.256Z,12.10
2022-10-05T09:29:38.722Z,4.90
2022-10-05T09:32:25.087Z,2.00
2022-10-05T09:35:13.080Z,1.80
2022-10-05T09:37:48.632Z,2.60
2022-10-05T09:40:52.851Z,1.00
2022-10-05T09:43:58.115Z,1.00
2022-10-05T09:46:42.949Z,1.00
2022-10-05T09:49:11.467Z,1.00
2022-10-05T09:51:56.153Z,1.00
2022-10-05T09:54:38.965Z,1.00
2022-10-05T09:57:17.434Z,1.00
2022-10-05T09:59:47.188Z,1.00
2022-10-05T10:02:34.281Z,1.00
2022-10-05T10:05:05.538Z,1.00
2022-10-05T10:07:38.517Z,1.00
2022-10-05T10:10:38.900Z,1.00
2022-10-05T10:13:30.020Z,1.00
2022-10-05T10:16:29.954Z,1.00
2022-10-05T10:19:15.162Z,1.00
2022-10-05T10:21:47.899Z,1.00
2022-10-05T10:24:33.744Z,1.00
2022-10-05T10:27:16.557Z,1.00
2022-10-05T10:29:43.205Z,1.00
2022-10-05T10:32:50.611Z,1.00
2022-10-05T10:35:34.145Z,1.00
2022-10-05T10:38:12.863Z,1.00
2022-10-05T10:40:39.602Z,1.00
2022-10-05T10:43:43.826Z,1.00
2022-10-05T10:46:25.639Z,1.00
2022-10-05T10:49:18.771Z,1.00
2022-10-05T10:52:22.500Z,1.00
2022-10-05T10:55:20.024Z,1.00
2022-10-05T11:01:31.447Z,1.00
2022-10-05T11:04:11.784Z,1.00
2022-10-05T11:06:44.981Z,1.00
2022-10-05T11:10:00.804Z,1.00
2022-10-05T11:12:30.873Z,1.00
2022-10-05T11:15:21.513Z,1.00
2022-10-05T11:18:15.583Z,1.00
2022-10-05T11:21:06.151Z,1.00
2022-10-05T11:23:57.950Z,1.00
2022-10-05T11:26:57.940Z,1.00
2022-10-05T11:29:47.666Z,1.00
2022-10-05T11:32:42.196Z,1.00
2022-10-05T11:35:27.585Z,1.00
2022-10-05T11:38:22.016Z,1.00
2022-10-05T11:41:16.845Z,1.00
2022-10-05T11:44:09.215Z,1.00
2022-10-05T12:20:32.204Z,1.00
2022-10-05T12:23:06.192Z,1.00
2022-10-05T12:25:44.853Z,1.00
2022-10-05T12:28:15.341Z,1.00
2022-10-05T12:31:00.355Z,1.00
2022-10-05T12:33:32.652Z,1.00
2022-10-05T12:36:08.079Z,1.00
2022-10-05T12:39:03.408Z,1.00
2022-10-05T12:41:40.413Z,1.00
2022-10-05T12:44:22.111Z,1.00
2022-10-05T12:47:18.711Z,1.00
2022-10-05T12:50:01.730Z,1.00
2022-10-05T12:52:41.278Z,1.00
2022-10-05T12:55:21.744Z,1.00
2022-10-05T12:58:26.435Z,1.00
2022-10-05T13:01:14.505Z,1.00
2022-10-05T13:03:48.324Z,1.00
2022-10-05T13:06:47.861Z,1.00
2022-10-05T13:09:50.003Z,1.00
2022-10-05T13:12:26.524Z,1.00
2022-10-05T13:15:03.864Z,1.00
2022-10-05T13:17:50.488Z,1.00
2022-10-05T13:20:43.674Z,1.00
2022-10-05T13:23:39.553Z,1.00
2022-10-05T13:26:17.716Z,1.00
2022-10-05T13:28:53.282Z,1.00
2022-10-05T13:31:35.741Z,1.00
2022-10-05T13:34:25.098Z,1.00
2022-10-05T13:37:18.924Z,1.00
2022-10-05T13:40:07.399Z,1.00
2022-10-05T13:42:48.275Z,1.00
2022-10-05T13:45:24.609Z,1.00
2022-10-05T13:48:06.479Z,1.00
2022-10-05T13:50:48.278Z,1.00
2022-10-05T13:53:37.021Z,1.00
2022-10-05T13:56:10.373Z,1.00
2022-10-05T13:58:51.752Z,1.00
2022-10-05T14:01:35.589Z,1.00
2022-10-05T14:04:17.469Z,1.00
2022-10-05T14:06:45.380Z,1.00
2022-10-05T14:09:31.345Z,1.00
2022-10-05T14:12:03.934Z,1.00
2022-10-05T14:14:41.072Z,1.00
2022-10-05T14:17:33.120Z,1.00
2022-10-05T14:20:03.390Z,1.00
2022-10-05T14:22:30.239Z,1.00
2022-10-05T14:25:02.690Z,1.00
2022-10-05T14:27:33.675Z,1.00
2022-10-05T14:30:23.697Z,1.00
2022-10-05T14:33:05.836Z,1.00
2022-10-05T14:35:49.820Z,1.00
2022-10-05T14:38:22.651Z,1.00
2022-10-05T14:41:07.805Z,1.00
2022-10-05T14:43:35.751Z,1.00
2022-10-05T14:46:23.378Z,1.00
2022-10-05T14:49:22.209Z,1.00
2022-10-05T14:51:53.440Z,1.00
2022-10-05T14:54:35.158Z,1.00
2022-10-05T14:57:10.266Z,1.00
2022-10-05T14:59:47.309Z,1.00
2022-10-05T15:02:13.995Z,1.00
2022-10-05T15:04:47.628Z,1.00
2022-10-05T15:07:24.990Z,1.00
2022-10-05T15:10:27.016Z,1.00
2022-10-05T15:12:58.912Z,1.00
2022-10-05T15:15:32.773Z,1.00
2022-10-05T15:18:11.920Z,1.00
2022-10-05T15:21:09.938Z,1.00
2022-10-05T15:23:48.985Z,1.00
2022-10-05T15:26:24.359Z,1.00
2022-10-05T15:29:21.612Z,1.00
2022-10-05T15:31:54.386Z,1.00
2022-10-05T15:34:38.669Z,1.00
2022-10-05T15:37:16.144Z,1.00
2022-10-05T15:40:06.662Z,1.00
2022-10-05T15:42:41.496Z,1.00
2022-10-05T15:45:20.651Z,1.00
2022-10-05T15:47:59.983Z,1.00
2022-10-05T15:50:35.702Z,1.00
2022-10-05T15:53:21.052Z,1.00
2022-10-05T15:55:56.886Z,1.00
2022-10-05T15:58:47.803Z,1.00
2022-10-05T16:01:47.328Z,1.00
2022-10-05T16:04:41.606Z,1.00
2022-10-05T16:07:36.834Z,1.00
2022-10-05T16:10:17.767Z,1.00
2022-10-05T16:12:53.644Z,1.00
2022-10-05T16:15:35.564Z,1.00
2022-10-05T16:18:20.934Z,1.00
2022-10-05T16:21:51.521Z,1.00
2022-10-05T16:24:39.840Z,1.00
2022-10-05T16:27:38.326Z,1.00
2022-10-05T16:30:10.372Z,1.00
2022-10-05T16:32:46.145Z,1.00
2022-10-05T16:35:43.578Z,1.00
2022-10-05T16:38:39.517Z,1.00
2022-10-05T16:41:14.823Z,1.00
2022-10-05T16:44:39.862Z,1.00
2022-10-05T16:47:27.666Z,1.00
2022-10-05T16:50:23.498Z,1.90
2022-10-05T16:53:00.063Z,5.40
2022-10-05T16:55:52.889Z,6.90
2022-10-05T16:58:27.990Z,8.40
2022-10-05T17:01:19.591Z,10.00
2022-10-05T17:03:58.079Z,11.00
2022-10-05T17:06:36.986Z,16.00
2022-10-05T17:09:15.702Z,18.30
2022-10-05T17:11:48.086Z,16.50
2022-10-05T17:14:36.651Z,19.10
2022-10-05T17:17:15.863Z,24.10
2022-10-05T17:20:09.475Z,24.80
2022-10-05T17:23:18.309Z,32.50
2022-10-05T17:25:54.061Z,35.20
2022-10-05T17:28:40.008Z,40.00
2022-10-05T17:31:20.401Z,36.40
2022-10-05T17:34:35.001Z,42.30
2022-10-05T17:37:19.007Z,47.20
2022-10-05T17:39:49.511Z,60.00
2022-10-05T17:42:34.331Z,60.90
2022-10-05T17:45:21.000Z,64.20
2022-10-05T17:47:56.578Z,64.70
2022-10-05T17:50:59.975Z,64.90
2022-10-05T17:54:03.217Z,67.30
2022-10-05T17:56:31.622Z,68.00
2022-10-05T17:59:04.765Z,71.20
2022-10-05T18:01:40.181Z,75.90
2022-10-05T18:04:12.839Z,78.60
2022-10-05T18:07:17.904Z,79.50
2022-10-05T18:09:57.469Z,80.80
2022-10-05T18:12:52.435Z,80.70
2022-10-05T18:15:24.980Z,80.70
2022-10-05T18:18:20.079Z,84.80
2022-10-05T18:21:14.561Z,86.40
2022-10-05T18:23:59.660Z,88.80
2022-10-05T18:26:57.286Z,88.80
2022-10-05T18:30:01.004Z,89.50
2022-10-05T18:33:05.325Z,90.10
2022-10-05T18:35:51.053Z,90.40
2022-10-05T18:38:38.742Z,90.30
2022-10-05T18:41:16.566Z,90.20
2022-10-05T18:43:58.444Z,90.20
2022-10-05T18:46:57.243Z,90.60
2022-10-05T18:49:36.177Z,90.70
2022-10-05T18:52:16.420Z,90.70
2022-10-05T18:55:20.836Z,90.80
2022-10-05T18:58:10.100Z,91.10
2022-10-05T19:00:45.851Z,91.20
2022-10-05T19:03:22.752Z,91.30
2022-10-05T19:06:13.402Z,91.50
2022-10-05T19:09:04.212Z,91.50
2022-10-05T19:11:33.829Z,91.50
2022-10-05T19:14:16.279Z,91.70
2022-10-05T19:16:58.253Z,91.60
2022-10-05T19:20:12.950Z,91.60
2022-10-05T19:23:09.427Z,91.60
2022-10-05T19:25:53.149Z,91.50
2022-10-05T19:28:34.938Z,91.60
2022-10-05T19:31:36.514Z,91.50
2022-10-05T19:34:32.772Z,91.40
2022-10-05T19:37:10.300Z,91.40
2022-10-05T19:40:04.554Z,91.40
2022-10-05T19:42:54.533Z,91.30
2022-10-05T19:45:24.226Z,91.40
2022-10-05T19:48:13.841Z,91.50
2022-10-05T19:50:57.375Z,91.50
2022-10-05T19:53:29.471Z,91.50
2022-10-05T19:55:56.674Z,91.40
2022-10-05T19:58:27.015Z,91.40
2022-10-05T20:00:58.532Z,91.30
2022-10-05T20:03:30.692Z,91.40
2022-10-05T20:06:02.395Z,91.40
2022-10-05T20:08:39.476Z,91.40
2022-10-05T20:11:16.239Z,91.40
2022-10-05T20:14:06.199Z,91.40
2022-10-05T20:16:53.357Z,91.40
2022-10-05T20:19:50.555Z,91.40
2022-10-05T20:22:30.577Z,91.40
2022-10-05T20:25:07.774Z,91.50
2022-10-05T20:27:41.358Z,91.50
2022-10-05T20:30:22.532Z,91.50
2022-10-05T20:32:50.612Z,91.50
2022-10-05T20:35:18.955Z,91.50
2022-10-05T20:37:45.685Z,91.50
2022-10-05T20:40:12.911Z,91.40
2022-10-05T20:42:39.687Z,91.30
2022-10-05T20:45:06.948Z,91.30
2022-10-05T20:47:33.758Z,91.60
2022-10-05T20:50:01.104Z,91.60
2022-10-05T20:52:27.842Z,91.70
2022-10-05T20:54:58.887Z,91.70
2022-10-05T20:57:26.608Z,91.70
2022-10-05T20:59:53.703Z,91.70
2022-10-05T21:02:20.754Z,91.70
2022-10-05T21:04:47.923Z,91.70
2022-10-05T21:07:16.700Z,91.70
2022-10-05T21:09:44.761Z,91.70
2022-10-05T21:12:11.487Z,91.70
2022-10-05T21:14:38.853Z,91.70
2022-10-05T21:17:06.753Z,91.70
2022-10-05T21:19:38.305Z,91.60
2022-10-05T21:22:09.878Z,91.60
2022-10-05T21:24:38.648Z,91.60
2022-10-05T21:27:05.854Z,91.60
2022-10-05T21:29:34.407Z,91.60
2022-10-05T21:32:01.629Z,91.60
2022-10-05T21:34:28.729Z,91.60
2022-10-05T21:36:55.507Z,91.50
2022-10-05T21:39:22.432Z,91.50
2022-10-05T21:41:49.905Z,91.50
2022-10-05T21:44:16.953Z,91.50
2022-10-05T21:46:43.906Z,91.50
2022-10-05T21:49:10.922Z,91.50
2022-10-05T21:51:39.152Z,91.50
2022-10-05T21:54:13.316Z,91.50
2022-10-05T21:56:44.022Z,91.50
2022-10-05T21:59:14.404Z,91.50
2022-10-05T22:01:41.161Z,91.50
2022-10-05T22:04:08.268Z,91.50
2022-10-05T22:06:35.863Z,91.50
2022-10-05T22:09:03.891Z,91.50
2022-10-05T22:11:31.632Z,91.40
2022-10-05T22:14:02.440Z,91.50
2022-10-05T22:16:32.101Z,91.40
2022-10-05T22:19:02.386Z,91.50
2022-10-05T22:21:29.819Z,91.50
2022-10-05T22:23:56.581Z,91.40
2022-10-05T22:26:24.295Z,91.50
2022-10-05T22:28:55.032Z,91.50
2022-10-05T22:31:22.008Z,91.50
2022-10-05T22:33:48.855Z,91.50
2022-10-05T22:36:16.196Z,91.50
2022-10-05T22:38:43.012Z,91.60
2022-10-05T22:41:11.795Z,91.60
2022-10-05T22:43:39.074Z,91.60
2022-10-05T22:46:13.220Z,91.60
2022-10-05T22:48:40.402Z,91.70
2022-10-05T22:51:07.886Z,91.70
2022-10-05T22:53:34.898Z,91.70
2022-10-05T22:56:19.998Z,91.70
2022-10-05T22:58:46.985Z,91.70
2022-10-05T23:01:16.277Z,91.70
2022-10-05T23:03:43.791Z,91.70
2022-10-05T23:06:28.515Z,91.70
2022-10-05T23:08:55.439Z,91.70
2022-10-05T23:11:28.035Z,91.60
2022-10-05T23:13:56.815Z,91.60
2022-10-05T23:16:26.722Z,91.60
2022-10-05T23:18:54.773Z,91.60
2022-10-05T23:21:23.836Z,91.50
2022-10-05T23:23:53.231Z,91.50
2022-10-05T23:26:22.899Z,91.50
2022-10-05T23:28:50.240Z,91.50
2022-10-05T23:31:19.783Z,91.50
2022-10-05T23:33:47.232Z,91.50
2022-10-05T23:36:19.892Z,91.50
2022-10-05T23:38:47.204Z,91.50
2022-10-05T23:41:14.408Z,91.50
2022-10-05T23:43:41.135Z,91.50
2022-10-05T23:46:08.922Z,91.50
2022-10-05T23:48:39.302Z,91.50
2022-10-05T23:51:07.551Z,91.50
2022-10-05T23:53:34.822Z,91.50
2022-10-05T23:56:01.820Z,91.50
2022-10-05T23:58:28.952Z,91.50
